sensor_id;sensor_type;location;lat;lon;timestamp;P1;durP1;ratioP1;P2;durP2;ratioP2
32523;SDS011;18965;52.242;20.886;2023-03-11T00:01:30;101.55;;;60.63;;
32523;SDS011;18965;52.242;20.886;2023-03-11T00:03:57;85.78;;;58.10;;
32523;SDS011;18965;52.242;20.886;2023-03-11T00:06:23;88.57;;;57.78;;
32523;SDS011;18965;52.242;20.886;2023-03-11T00:08:48;92.95;;;60.45;;
32523;SDS011;18965;52.242;20.886;2023-03-11T00:11:16;91.28;;;58.53;;
32523;SDS011;18965;52.242;20.886;2023-03-11T00:13:41;88.55;;;57.47;;
32523;SDS011;18965;52.242;20.886;2023-03-11T00:16:08;80.80;;;56.63;;
32523;SDS011;18965;52.242;20.886;2023-03-11T00:18:34;79.38;;;54.42;;
32523;SDS011;18965;52.242;20.886;2023-03-11T00:20:59;76.13;;;53.78;;
32523;SDS011;18965;52.242;20.886;2023-03-11T00:23:25;79.45;;;54.30;;
32523;SDS011;18965;52.242;20.886;2023-03-11T00:25:51;83.13;;;53.78;;
32523;SDS011;18965;52.242;20.886;2023-03-11T00:28:17;79.70;;;51.72;;
32523;SDS011;18965;52.242;20.886;2023-03-11T00:30:44;66.13;;;51.28;;
32523;SDS011;18965;52.242;20.886;2023-03-11T00:33:11;73.70;;;50.80;;
32523;SDS011;18965;52.242;20.886;2023-03-11T00:35:38;67.53;;;49.38;;
32523;SDS011;18965;52.242;20.886;2023-03-11T00:38:05;89.68;;;51.88;;
32523;SDS011;18965;52.242;20.886;2023-03-11T00:40:33;69.75;;;48.85;;
32523;SDS011;18965;52.242;20.886;2023-03-11T00:42:59;95.75;;;51.35;;
32523;SDS011;18965;52.242;20.886;2023-03-11T00:45:26;72.75;;;49.97;;
32523;SDS011;18965;52.242;20.886;2023-03-11T00:47:52;74.25;;;49.47;;
32523;SDS011;18965;52.242;20.886;2023-03-11T00:50:20;65.45;;;48.33;;
32523;SDS011;18965;52.242;20.886;2023-03-11T00:52:48;68.88;;;48.55;;
32523;SDS011;18965;52.242;20.886;2023-03-11T00:55:15;71.70;;;50.10;;
32523;SDS011;18965;52.242;20.886;2023-03-11T00:57:43;80.30;;;52.05;;
32523;SDS011;18965;52.242;20.886;2023-03-11T01:00:13;83.00;;;51.53;;
32523;SDS011;18965;52.242;20.886;2023-03-11T01:02:41;73.78;;;51.30;;
32523;SDS011;18965;52.242;20.886;2023-03-11T01:05:07;67.97;;;51.35;;
32523;SDS011;18965;52.242;20.886;2023-03-11T01:07:33;80.57;;;53.78;;
32523;SDS011;18965;52.242;20.886;2023-03-11T01:09:59;87.25;;;56.03;;
32523;SDS011;18965;52.242;20.886;2023-03-11T01:12:25;81.50;;;55.30;;
32523;SDS011;18965;52.242;20.886;2023-03-11T01:14:51;99.20;;;56.85;;
32523;SDS011;18965;52.242;20.886;2023-03-11T01:17:17;80.53;;;54.72;;
32523;SDS011;18965;52.242;20.886;2023-03-11T01:19:42;86.57;;;55.70;;
32523;SDS011;18965;52.242;20.886;2023-03-11T01:22:09;99.18;;;58.80;;
32523;SDS011;18965;52.242;20.886;2023-03-11T01:24:35;100.95;;;58.58;;
32523;SDS011;18965;52.242;20.886;2023-03-11T01:27:01;97.68;;;59.03;;
32523;SDS011;18965;52.242;20.886;2023-03-11T01:29:26;91.60;;;58.20;;
32523;SDS011;18965;52.242;20.886;2023-03-11T01:31:52;99.00;;;59.58;;
32523;SDS011;18965;52.242;20.886;2023-03-11T01:34:18;88.82;;;57.40;;
32523;SDS011;18965;52.242;20.886;2023-03-11T01:36:43;106.65;;;60.35;;
32523;SDS011;18965;52.242;20.886;2023-03-11T01:39:09;105.63;;;59.45;;
32523;SDS011;18965;52.242;20.886;2023-03-11T01:41:35;103.00;;;60.22;;
32523;SDS011;18965;52.242;20.886;2023-03-11T01:44:00;115.72;;;62.78;;
32523;SDS011;18965;52.242;20.886;2023-03-11T01:49:19;99.72;;;57.40;;
32523;SDS011;18965;52.242;20.886;2023-03-11T01:51:46;113.90;;;61.95;;
32523;SDS011;18965;52.242;20.886;2023-03-11T01:54:17;102.30;;;60.40;;
32523;SDS011;18965;52.242;20.886;2023-03-11T01:56:51;111.07;;;61.03;;
32523;SDS011;18965;52.242;20.886;2023-03-11T01:59:20;126.47;;;63.65;;
32523;SDS011;18965;52.242;20.886;2023-03-11T02:01:57;78.82;;;44.22;;
32523;SDS011;18965;52.242;20.886;2023-03-11T02:04:28;112.50;;;61.88;;
32523;SDS011;18965;52.242;20.886;2023-03-11T02:06:58;119.47;;;62.08;;
32523;SDS011;18965;52.242;20.886;2023-03-11T02:09:25;110.63;;;61.60;;
32523;SDS011;18965;52.242;20.886;2023-03-11T02:11:51;115.00;;;63.65;;
32523;SDS011;18965;52.242;20.886;2023-03-11T02:14:17;125.25;;;64.60;;
32523;SDS011;18965;52.242;20.886;2023-03-11T02:16:44;120.68;;;63.05;;
32523;SDS011;18965;52.242;20.886;2023-03-11T02:22:03;113.90;;;60.55;;
32523;SDS011;18965;52.242;20.886;2023-03-11T02:27:23;116.82;;;62.05;;
32523;SDS011;18965;52.242;20.886;2023-03-11T02:29:52;116.07;;;61.20;;
32523;SDS011;18965;52.242;20.886;2023-03-11T02:32:21;125.15;;;62.83;;
32523;SDS011;18965;52.242;20.886;2023-03-11T02:34:47;127.55;;;61.90;;
32523;SDS011;18965;52.242;20.886;2023-03-11T02:37:14;111.30;;;60.25;;
32523;SDS011;18965;52.242;20.886;2023-03-11T02:39:42;121.35;;;62.28;;
32523;SDS011;18965;52.242;20.886;2023-03-11T02:42:14;133.80;;;63.67;;
32523;SDS011;18965;52.242;20.886;2023-03-11T02:45:03;121.13;;;61.63;;
32523;SDS011;18965;52.242;20.886;2023-03-11T02:47:34;140.85;;;65.15;;
32523;SDS011;18965;52.242;20.886;2023-03-11T02:50:01;135.52;;;63.60;;
32523;SDS011;18965;52.242;20.886;2023-03-11T02:52:27;128.35;;;62.33;;
32523;SDS011;18965;52.242;20.886;2023-03-11T02:54:56;129.18;;;63.38;;
32523;SDS011;18965;52.242;20.886;2023-03-11T02:57:21;119.78;;;61.97;;
32523;SDS011;18965;52.242;20.886;2023-03-11T02:59:47;139.55;;;63.97;;
32523;SDS011;18965;52.242;20.886;2023-03-11T03:02:12;145.95;;;65.20;;
32523;SDS011;18965;52.242;20.886;2023-03-11T03:04:38;129.10;;;62.40;;
32523;SDS011;18965;52.242;20.886;2023-03-11T03:07:04;125.13;;;62.47;;
32523;SDS011;18965;52.242;20.886;2023-03-11T03:09:30;128.40;;;62.67;;
32523;SDS011;18965;52.242;20.886;2023-03-11T03:11:56;157.75;;;66.07;;
32523;SDS011;18965;52.242;20.886;2023-03-11T03:14:21;128.68;;;61.80;;
32523;SDS011;18965;52.242;20.886;2023-03-11T03:16:47;129.18;;;61.47;;
32523;SDS011;18965;52.242;20.886;2023-03-11T03:19:13;135.77;;;62.95;;
32523;SDS011;18965;52.242;20.886;2023-03-11T03:21:38;118.63;;;61.13;;
32523;SDS011;18965;52.242;20.886;2023-03-11T03:24:05;121.63;;;60.67;;
32523;SDS011;18965;52.242;20.886;2023-03-11T03:26:31;128.57;;;60.33;;
32523;SDS011;18965;52.242;20.886;2023-03-11T03:28:56;136.48;;;67.82;;
32523;SDS011;18965;52.242;20.886;2023-03-11T03:31:22;116.85;;;59.22;;
32523;SDS011;18965;52.242;20.886;2023-03-11T03:33:48;120.82;;;60.22;;
32523;SDS011;18965;52.242;20.886;2023-03-11T03:36:14;123.90;;;61.25;;
32523;SDS011;18965;52.242;20.886;2023-03-11T03:38:40;126.70;;;61.60;;
32523;SDS011;18965;52.242;20.886;2023-03-11T03:41:06;118.35;;;59.90;;
32523;SDS011;18965;52.242;20.886;2023-03-11T03:43:32;121.13;;;60.22;;
32523;SDS011;18965;52.242;20.886;2023-03-11T03:45:58;119.40;;;60.67;;
32523;SDS011;18965;52.242;20.886;2023-03-11T03:48:29;107.85;;;57.47;;
32523;SDS011;18965;52.242;20.886;2023-03-11T03:50:55;100.10;;;56.38;;
32523;SDS011;18965;52.242;20.886;2023-03-11T03:53:21;110.72;;;57.58;;
32523;SDS011;18965;52.242;20.886;2023-03-11T03:55:47;96.70;;;54.45;;
32523;SDS011;18965;52.242;20.886;2023-03-11T03:58:14;98.20;;;53.90;;
32523;SDS011;18965;52.242;20.886;2023-03-11T04:00:40;85.47;;;52.40;;
32523;SDS011;18965;52.242;20.886;2023-03-11T04:03:06;86.15;;;52.05;;
32523;SDS011;18965;52.242;20.886;2023-03-11T04:05:31;82.55;;;49.92;;
32523;SDS011;18965;52.242;20.886;2023-03-11T04:07:57;85.20;;;50.22;;
32523;SDS011;18965;52.242;20.886;2023-03-11T04:10:23;79.93;;;49.53;;
32523;SDS011;18965;52.242;20.886;2023-03-11T04:12:48;76.50;;;47.75;;
32523;SDS011;18965;52.242;20.886;2023-03-11T04:15:14;61.53;;;45.40;;
32523;SDS011;18965;52.242;20.886;2023-03-11T04:17:40;64.10;;;45.00;;
32523;SDS011;18965;52.242;20.886;2023-03-11T04:20:06;68.50;;;44.83;;
32523;SDS011;18965;52.242;20.886;2023-03-11T04:22:33;73.45;;;44.75;;
32523;SDS011;18965;52.242;20.886;2023-03-11T04:24:59;63.67;;;43.95;;
32523;SDS011;18965;52.242;20.886;2023-03-11T04:27:24;55.58;;;42.17;;
32523;SDS011;18965;52.242;20.886;2023-03-11T04:29:50;48.80;;;40.38;;
32523;SDS011;18965;52.242;20.886;2023-03-11T04:32:16;54.35;;;39.30;;
32523;SDS011;18965;52.242;20.886;2023-03-11T04:34:42;58.70;;;40.58;;
32523;SDS011;18965;52.242;20.886;2023-03-11T04:37:08;53.17;;;38.80;;
32523;SDS011;18965;52.242;20.886;2023-03-11T04:39:33;43.28;;;37.13;;
32523;SDS011;18965;52.242;20.886;2023-03-11T04:41:59;44.55;;;37.80;;
32523;SDS011;18965;52.242;20.886;2023-03-11T04:44:25;41.60;;;36.38;;
32523;SDS011;18965;52.242;20.886;2023-03-11T04:46:51;61.33;;;39.63;;
32523;SDS011;18965;52.242;20.886;2023-03-11T04:49:16;51.85;;;38.17;;
32523;SDS011;18965;52.242;20.886;2023-03-11T04:51:42;91.15;;;40.85;;
32523;SDS011;18965;52.242;20.886;2023-03-11T04:54:08;41.80;;;34.13;;
32523;SDS011;18965;52.242;20.886;2023-03-11T04:56:34;35.85;;;32.20;;
32523;SDS011;18965;52.242;20.886;2023-03-11T04:58:59;40.40;;;31.23;;
32523;SDS011;18965;52.242;20.886;2023-03-11T05:01:26;33.60;;;26.20;;
32523;SDS011;18965;52.242;20.886;2023-03-11T05:03:51;37.53;;;29.33;;
32523;SDS011;18965;52.242;20.886;2023-03-11T05:06:17;36.72;;;31.67;;
32523;SDS011;18965;52.242;20.886;2023-03-11T05:08:43;48.22;;;35.83;;
32523;SDS011;18965;52.242;20.886;2023-03-11T05:11:09;69.03;;;42.30;;
32523;SDS011;18965;52.242;20.886;2023-03-11T05:13:34;68.80;;;41.53;;
32523;SDS011;18965;52.242;20.886;2023-03-11T05:16:00;56.58;;;37.08;;
32523;SDS011;18965;52.242;20.886;2023-03-11T05:18:26;119.32;;;37.65;;
32523;SDS011;18965;52.242;20.886;2023-03-11T05:20:53;44.13;;;27.73;;
32523;SDS011;18965;52.242;20.886;2023-03-11T05:23:19;42.75;;;27.35;;
32523;SDS011;18965;52.242;20.886;2023-03-11T05:25:45;46.22;;;26.60;;
32523;SDS011;18965;52.242;20.886;2023-03-11T05:28:10;50.08;;;25.58;;
32523;SDS011;18965;52.242;20.886;2023-03-11T05:30:36;52.50;;;24.33;;
32523;SDS011;18965;52.242;20.886;2023-03-11T05:33:02;34.47;;;17.88;;
32523;SDS011;18965;52.242;20.886;2023-03-11T05:35:28;40.20;;;22.98;;
32523;SDS011;18965;52.242;20.886;2023-03-11T05:37:53;61.60;;;25.85;;
32523;SDS011;18965;52.242;20.886;2023-03-11T05:40:19;40.67;;;23.63;;
32523;SDS011;18965;52.242;20.886;2023-03-11T05:42:45;36.13;;;25.30;;
32523;SDS011;18965;52.242;20.886;2023-03-11T05:45:11;36.47;;;25.52;;
32523;SDS011;18965;52.242;20.886;2023-03-11T05:47:37;56.80;;;27.80;;
32523;SDS011;18965;52.242;20.886;2023-03-11T05:50:06;38.10;;;25.58;;
32523;SDS011;18965;52.242;20.886;2023-03-11T05:52:33;83.68;;;29.83;;
32523;SDS011;18965;52.242;20.886;2023-03-11T05:54:58;37.78;;;24.70;;
32523;SDS011;18965;52.242;20.886;2023-03-11T05:57:24;36.55;;;25.25;;
32523;SDS011;18965;52.242;20.886;2023-03-11T05:59:50;54.20;;;28.48;;
32523;SDS011;18965;52.242;20.886;2023-03-11T06:02:16;39.75;;;25.13;;
32523;SDS011;18965;52.242;20.886;2023-03-11T06:04:42;66.32;;;31.17;;
32523;SDS011;18965;52.242;20.886;2023-03-11T06:07:07;33.03;;;21.95;;
32523;SDS011;18965;52.242;20.886;2023-03-11T06:09:33;26.70;;;18.08;;
32523;SDS011;18965;52.242;20.886;2023-03-11T06:12:02;61.97;;;18.17;;
32523;SDS011;18965;52.242;20.886;2023-03-11T06:14:29;25.27;;;13.07;;
32523;SDS011;18965;52.242;20.886;2023-03-11T06:16:56;33.42;;;12.88;;
32523;SDS011;18965;52.242;20.886;2023-03-11T06:19:23;45.50;;;13.57;;
32523;SDS011;18965;52.242;20.886;2023-03-11T06:21:49;34.70;;;13.48;;
32523;SDS011;18965;52.242;20.886;2023-03-11T06:24:15;30.92;;;13.50;;
32523;SDS011;18965;52.242;20.886;2023-03-11T06:26:41;34.20;;;12.63;;
32523;SDS011;18965;52.242;20.886;2023-03-11T06:29:11;33.47;;;12.82;;
32523;SDS011;18965;52.242;20.886;2023-03-11T06:34:04;39.70;;;9.93;;
32523;SDS011;18965;52.242;20.886;2023-03-11T06:36:30;39.22;;;11.48;;
32523;SDS011;18965;52.242;20.886;2023-03-11T06:38:56;24.13;;;10.05;;
32523;SDS011;18965;52.242;20.886;2023-03-11T06:41:22;61.40;;;13.55;;
32523;SDS011;18965;52.242;20.886;2023-03-11T06:43:48;65.45;;;13.57;;
32523;SDS011;18965;52.242;20.886;2023-03-11T06:46:15;63.13;;;13.55;;
32523;SDS011;18965;52.242;20.886;2023-03-11T06:48:45;35.30;;;10.75;;
32523;SDS011;18965;52.242;20.886;2023-03-11T06:51:12;36.58;;;11.65;;
32523;SDS011;18965;52.242;20.886;2023-03-11T06:53:38;55.55;;;12.88;;
32523;SDS011;18965;52.242;20.886;2023-03-11T06:56:05;30.55;;;10.07;;
32523;SDS011;18965;52.242;20.886;2023-03-11T06:58:36;25.65;;;10.05;;
32523;SDS011;18965;52.242;20.886;2023-03-11T07:01:04;36.08;;;10.35;;
32523;SDS011;18965;52.242;20.886;2023-03-11T07:03:32;37.13;;;10.88;;
32523;SDS011;18965;52.242;20.886;2023-03-11T07:05:58;39.10;;;11.25;;
32523;SDS011;18965;52.242;20.886;2023-03-11T07:08:24;27.35;;;9.82;;
32523;SDS011;18965;52.242;20.886;2023-03-11T07:11:03;51.90;;;12.05;;
32523;SDS011;18965;52.242;20.886;2023-03-11T07:13:31;32.83;;;11.10;;
32523;SDS011;18965;52.242;20.886;2023-03-11T07:16:01;50.90;;;12.68;;
32523;SDS011;18965;52.242;20.886;2023-03-11T07:18:32;44.95;;;10.85;;
32523;SDS011;18965;52.242;20.886;2023-03-11T07:21:02;26.95;;;8.98;;
32523;SDS011;18965;52.242;20.886;2023-03-11T07:23:30;33.40;;;9.82;;
32523;SDS011;18965;52.242;20.886;2023-03-11T07:25:56;76.28;;;14.55;;
32523;SDS011;18965;52.242;20.886;2023-03-11T07:28:22;74.05;;;14.10;;
32523;SDS011;18965;52.242;20.886;2023-03-11T07:30:49;39.65;;;11.13;;
32523;SDS011;18965;52.242;20.886;2023-03-11T07:33:15;30.30;;;9.88;;
32523;SDS011;18965;52.242;20.886;2023-03-11T07:35:41;37.65;;;10.95;;
32523;SDS011;18965;52.242;20.886;2023-03-11T07:38:08;64.40;;;13.40;;
32523;SDS011;18965;52.242;20.886;2023-03-11T07:40:34;57.38;;;12.88;;
32523;SDS011;18965;52.242;20.886;2023-03-11T07:43:00;76.03;;;15.40;;
32523;SDS011;18965;52.242;20.886;2023-03-11T07:45:25;27.73;;;10.57;;
32523;SDS011;18965;52.242;20.886;2023-03-11T07:47:51;30.73;;;13.10;;
32523;SDS011;18965;52.242;20.886;2023-03-11T07:50:17;30.88;;;11.80;;
32523;SDS011;18965;52.242;20.886;2023-03-11T07:52:46;100.43;;;17.75;;
32523;SDS011;18965;52.242;20.886;2023-03-11T07:55:11;71.97;;;14.60;;
32523;SDS011;18965;52.242;20.886;2023-03-11T07:57:37;29.92;;;11.32;;
32523;SDS011;18965;52.242;20.886;2023-03-11T08:00:03;33.08;;;12.52;;
32523;SDS011;18965;52.242;20.886;2023-03-11T08:02:29;50.45;;;14.02;;
32523;SDS011;18965;52.242;20.886;2023-03-11T08:04:55;46.78;;;13.95;;
32523;SDS011;18965;52.242;20.886;2023-03-11T08:07:21;60.03;;;15.60;;
32523;SDS011;18965;52.242;20.886;2023-03-11T08:09:47;53.13;;;16.75;;
32523;SDS011;18965;52.242;20.886;2023-03-11T08:12:13;55.70;;;22.65;;
32523;SDS011;18965;52.242;20.886;2023-03-11T08:14:39;58.58;;;19.13;;
32523;SDS011;18965;52.242;20.886;2023-03-11T08:17:05;51.78;;;20.48;;
32523;SDS011;18965;52.242;20.886;2023-03-11T08:19:30;53.03;;;21.30;;
32523;SDS011;18965;52.242;20.886;2023-03-11T08:21:56;40.08;;;19.73;;
32523;SDS011;18965;52.242;20.886;2023-03-11T08:24:24;30.70;;;17.75;;
32523;SDS011;18965;52.242;20.886;2023-03-11T08:26:50;37.92;;;18.73;;
32523;SDS011;18965;52.242;20.886;2023-03-11T08:29:16;47.47;;;19.88;;
32523;SDS011;18965;52.242;20.886;2023-03-11T08:31:41;173.65;;;33.42;;
32523;SDS011;18965;52.242;20.886;2023-03-11T08:34:07;44.05;;;16.50;;
32523;SDS011;18965;52.242;20.886;2023-03-11T08:36:34;32.53;;;17.27;;
32523;SDS011;18965;52.242;20.886;2023-03-11T08:39:00;31.10;;;16.90;;
32523;SDS011;18965;52.242;20.886;2023-03-11T08:41:26;39.03;;;15.88;;
32523;SDS011;18965;52.242;20.886;2023-03-11T08:43:52;36.03;;;14.27;;
32523;SDS011;18965;52.242;20.886;2023-03-11T08:46:23;30.65;;;13.43;;
32523;SDS011;18965;52.242;20.886;2023-03-11T08:48:53;52.28;;;16.25;;
32523;SDS011;18965;52.242;20.886;2023-03-11T08:51:19;18.55;;;12.68;;
32523;SDS011;18965;52.242;20.886;2023-03-11T08:53:45;22.77;;;13.68;;
32523;SDS011;18965;52.242;20.886;2023-03-11T08:56:11;30.25;;;15.95;;
32523;SDS011;18965;52.242;20.886;2023-03-11T08:58:37;26.58;;;14.10;;
32523;SDS011;18965;52.242;20.886;2023-03-11T09:01:04;42.75;;;15.60;;
32523;SDS011;18965;52.242;20.886;2023-03-11T09:03:31;34.80;;;13.60;;
32523;SDS011;18965;52.242;20.886;2023-03-11T09:06:01;16.92;;;11.15;;
32523;SDS011;18965;52.242;20.886;2023-03-11T09:08:29;31.00;;;13.48;;
32523;SDS011;18965;52.242;20.886;2023-03-11T09:10:55;24.38;;;11.80;;
32523;SDS011;18965;52.242;20.886;2023-03-11T09:13:21;32.58;;;13.18;;
32523;SDS011;18965;52.242;20.886;2023-03-11T09:15:47;34.55;;;13.27;;
32523;SDS011;18965;52.242;20.886;2023-03-11T09:18:14;53.45;;;15.52;;
32523;SDS011;18965;52.242;20.886;2023-03-11T09:20:41;55.30;;;15.77;;
32523;SDS011;18965;52.242;20.886;2023-03-11T09:23:08;51.70;;;15.80;;
32523;SDS011;18965;52.242;20.886;2023-03-11T09:25:35;36.03;;;14.50;;
32523;SDS011;18965;52.242;20.886;2023-03-11T09:28:01;53.58;;;14.90;;
32523;SDS011;18965;52.242;20.886;2023-03-11T09:30:27;49.47;;;16.80;;
32523;SDS011;18965;52.242;20.886;2023-03-11T09:32:52;41.28;;;17.40;;
32523;SDS011;18965;52.242;20.886;2023-03-11T09:35:18;56.72;;;19.13;;
32523;SDS011;18965;52.242;20.886;2023-03-11T09:37:44;33.72;;;21.48;;
32523;SDS011;18965;52.242;20.886;2023-03-11T09:40:14;50.65;;;25.38;;
32523;SDS011;18965;52.242;20.886;2023-03-11T09:45:38;51.47;;;32.38;;
32523;SDS011;18965;52.242;20.886;2023-03-11T09:48:19;73.80;;;38.45;;
32523;SDS011;18965;52.242;20.886;2023-03-11T09:51:04;57.10;;;43.13;;
32523;SDS011;18965;52.242;20.886;2023-03-11T09:53:40;69.30;;;46.40;;
32523;SDS011;18965;52.242;20.886;2023-03-11T09:56:17;62.85;;;47.30;;
32523;SDS011;18965;52.242;20.886;2023-03-11T09:58:46;86.80;;;52.25;;
32523;SDS011;18965;52.242;20.886;2023-03-11T10:03:50;93.47;;;53.67;;
32523;SDS011;18965;52.242;20.886;2023-03-11T10:06:23;86.38;;;52.38;;
32523;SDS011;18965;52.242;20.886;2023-03-11T10:17:47;94.30;;;73.20;;
32523;SDS011;18965;52.242;20.886;2023-03-11T10:26:34;125.05;;;73.82;;
32523;SDS011;18965;52.242;20.886;2023-03-11T10:32:05;123.85;;;56.33;;
32523;SDS011;18965;52.242;20.886;2023-03-11T10:34:59;134.98;;;65.07;;
32523;SDS011;18965;52.242;20.886;2023-03-11T10:37:41;121.40;;;57.08;;
32523;SDS011;18965;52.242;20.886;2023-03-11T10:43:13;123.40;;;57.53;;
32523;SDS011;18965;52.242;20.886;2023-03-11T10:45:43;129.17;;;60.67;;
32523;SDS011;18965;52.242;20.886;2023-03-11T10:48:13;154.60;;;61.20;;
32523;SDS011;18965;52.242;20.886;2023-03-11T10:50:42;129.43;;;66.93;;
32523;SDS011;18965;52.242;20.886;2023-03-11T10:53:14;181.75;;;83.22;;
32523;SDS011;18965;52.242;20.886;2023-03-11T10:55:47;144.35;;;72.85;;
32523;SDS011;18965;52.242;20.886;2023-03-11T10:58:24;146.45;;;67.10;;
32523;SDS011;18965;52.242;20.886;2023-03-11T11:01:02;162.63;;;71.47;;
32523;SDS011;18965;52.242;20.886;2023-03-11T11:03:41;200.07;;;86.10;;
32523;SDS011;18965;52.242;20.886;2023-03-11T11:06:20;185.13;;;67.72;;
32523;SDS011;18965;52.242;20.886;2023-03-11T11:09:12;157.88;;;65.55;;
32523;SDS011;18965;52.242;20.886;2023-03-11T11:11:39;167.90;;;66.25;;
32523;SDS011;18965;52.242;20.886;2023-03-11T11:14:06;166.55;;;66.07;;
32523;SDS011;18965;52.242;20.886;2023-03-11T11:16:33;188.55;;;68.35;;
32523;SDS011;18965;52.242;20.886;2023-03-11T11:19:03;176.13;;;66.65;;
32523;SDS011;18965;52.242;20.886;2023-03-11T11:24:13;174.98;;;67.57;;
32523;SDS011;18965;52.242;20.886;2023-03-11T11:27:10;199.95;;;70.78;;
32523;SDS011;18965;52.242;20.886;2023-03-11T11:29:44;178.43;;;66.97;;
32523;SDS011;18965;52.242;20.886;2023-03-11T11:37:29;261.27;;;78.43;;
32523;SDS011;18965;52.242;20.886;2023-03-11T11:40:05;210.60;;;72.50;;
32523;SDS011;18965;52.242;20.886;2023-03-11T11:42:39;121.75;;;54.45;;
32523;SDS011;18965;52.242;20.886;2023-03-11T11:47:47;62.35;;;39.30;;
32523;SDS011;18965;52.242;20.886;2023-03-11T11:50:22;45.63;;;35.38;;
32523;SDS011;18965;52.242;20.886;2023-03-11T11:55:57;33.78;;;28.27;;
32523;SDS011;18965;52.242;20.886;2023-03-11T11:58:23;86.90;;;41.58;;
32523;SDS011;18965;52.242;20.886;2023-03-11T12:03:39;11.30;;;4.72;;
32523;SDS011;18965;52.242;20.886;2023-03-11T12:17:45;17.10;;;5.90;;
32523;SDS011;18965;52.242;20.886;2023-03-11T12:28:02;37.08;;;8.23;;
32523;SDS011;18965;52.242;20.886;2023-03-11T12:30:35;14.15;;;3.78;;
32523;SDS011;18965;52.242;20.886;2023-03-11T12:33:08;16.85;;;4.95;;
32523;SDS011;18965;52.242;20.886;2023-03-11T12:35:48;234.40;;;81.78;;
32523;SDS011;18965;52.242;20.886;2023-03-11T12:38:20;227.75;;;80.55;;
32523;SDS011;18965;52.242;20.886;2023-03-11T12:45:58;186.57;;;74.22;;
32523;SDS011;18965;52.242;20.886;2023-03-11T12:57:35;68.13;;;48.22;;
32523;SDS011;18965;52.242;20.886;2023-03-11T13:05:26;77.93;;;49.72;;
32523;SDS011;18965;52.242;20.886;2023-03-11T13:10:47;64.50;;;45.40;;
32523;SDS011;18965;52.242;20.886;2023-03-11T13:13:34;102.53;;;52.25;;
32523;SDS011;18965;52.242;20.886;2023-03-11T13:18:38;89.15;;;52.97;;
32523;SDS011;18965;52.242;20.886;2023-03-11T13:21:36;105.55;;;56.67;;
32523;SDS011;18965;52.242;20.886;2023-03-11T13:23:51;134.77;;;60.65;;
32523;SDS011;18965;52.242;20.886;2023-03-11T13:31:49;123.55;;;53.85;;
32523;SDS011;18965;52.242;20.886;2023-03-11T13:42:29;86.78;;;51.13;;
32523;SDS011;18965;52.242;20.886;2023-03-11T13:44:56;78.18;;;49.45;;
32523;SDS011;18965;52.242;20.886;2023-03-11T13:47:22;90.60;;;50.97;;
32523;SDS011;18965;52.242;20.886;2023-03-11T13:52:29;82.13;;;46.65;;
32523;SDS011;18965;52.242;20.886;2023-03-11T13:55:28;87.97;;;44.90;;
32523;SDS011;18965;52.242;20.886;2023-03-11T13:57:58;71.43;;;43.38;;
32523;SDS011;18965;52.242;20.886;2023-03-11T14:00:24;56.90;;;42.53;;
32523;SDS011;18965;52.242;20.886;2023-03-11T14:03:00;63.03;;;40.60;;
32523;SDS011;18965;52.242;20.886;2023-03-11T14:05:33;66.63;;;41.97;;
32523;SDS011;18965;52.242;20.886;2023-03-11T14:08:21;51.85;;;38.53;;
32523;SDS011;18965;52.242;20.886;2023-03-11T14:11:02;67.30;;;38.63;;
32523;SDS011;18965;52.242;20.886;2023-03-11T14:13:44;53.03;;;39.72;;
32523;SDS011;18965;52.242;20.886;2023-03-11T14:19:14;43.58;;;36.10;;
32523;SDS011;18965;52.242;20.886;2023-03-11T14:21:41;37.78;;;33.78;;
32523;SDS011;18965;52.242;20.886;2023-03-11T14:24:19;43.35;;;36.03;;
32523;SDS011;18965;52.242;20.886;2023-03-11T14:26:49;38.72;;;34.47;;
32523;SDS011;18965;52.242;20.886;2023-03-11T14:29:19;43.72;;;35.55;;
32523;SDS011;18965;52.242;20.886;2023-03-11T14:31:53;43.47;;;36.42;;
32523;SDS011;18965;52.242;20.886;2023-03-11T14:34:20;76.25;;;40.28;;
32523;SDS011;18965;52.242;20.886;2023-03-11T14:36:50;64.47;;;45.38;;
32523;SDS011;18965;52.242;20.886;2023-03-11T14:39:21;62.67;;;47.85;;
32523;SDS011;18965;52.242;20.886;2023-03-11T14:44:43;52.20;;;42.38;;
32523;SDS011;18965;52.242;20.886;2023-03-11T14:47:34;49.72;;;35.63;;
32523;SDS011;18965;52.242;20.886;2023-03-11T14:50:19;37.47;;;29.05;;
32523;SDS011;18965;52.242;20.886;2023-03-11T14:55:41;46.47;;;21.00;;
32523;SDS011;18965;52.242;20.886;2023-03-11T15:03:52;20.83;;;13.45;;
32523;SDS011;18965;52.242;20.886;2023-03-11T15:06:25;21.10;;;12.70;;
32523;SDS011;18965;52.242;20.886;2023-03-11T15:11:29;18.58;;;12.73;;
32523;SDS011;18965;52.242;20.886;2023-03-11T15:14:08;22.98;;;10.27;;
32523;SDS011;18965;52.242;20.886;2023-03-11T15:16:41;30.67;;;10.20;;
32523;SDS011;18965;52.242;20.886;2023-03-11T15:21:51;38.65;;;11.45;;
32523;SDS011;18965;52.242;20.886;2023-03-11T15:24:21;138.80;;;61.83;;
32523;SDS011;18965;52.242;20.886;2023-03-11T15:27:00;145.40;;;67.00;;
32523;SDS011;18965;52.242;20.886;2023-03-11T15:29:26;136.75;;;61.42;;
32523;SDS011;18965;52.242;20.886;2023-03-11T15:31:53;153.07;;;62.38;;
32523;SDS011;18965;52.242;20.886;2023-03-11T15:36:57;184.45;;;64.75;;
32523;SDS011;18965;52.242;20.886;2023-03-11T15:42:00;143.50;;;61.03;;
32523;SDS011;18965;52.242;20.886;2023-03-11T15:46:57;132.48;;;59.55;;
32523;SDS011;18965;52.242;20.886;2023-03-11T15:49:26;107.80;;;56.33;;
32523;SDS011;18965;52.242;20.886;2023-03-11T15:51:59;112.07;;;60.20;;
32523;SDS011;18965;52.242;20.886;2023-03-11T15:54:26;113.55;;;58.10;;
32523;SDS011;18965;52.242;20.886;2023-03-11T15:56:52;102.72;;;54.85;;
32523;SDS011;18965;52.242;20.886;2023-03-11T15:59:19;102.72;;;53.40;;
32523;SDS011;18965;52.242;20.886;2023-03-11T16:01:46;114.25;;;55.08;;
32523;SDS011;18965;52.242;20.886;2023-03-11T16:04:16;94.47;;;52.35;;
32523;SDS011;18965;52.242;20.886;2023-03-11T16:06:42;152.90;;;57.90;;
32523;SDS011;18965;52.242;20.886;2023-03-11T16:09:08;103.45;;;52.15;;
32523;SDS011;18965;52.242;20.886;2023-03-11T16:11:37;113.88;;;53.13;;
32523;SDS011;18965;52.242;20.886;2023-03-11T16:14:03;114.60;;;53.58;;
32523;SDS011;18965;52.242;20.886;2023-03-11T16:16:30;108.00;;;52.40;;
32523;SDS011;18965;52.242;20.886;2023-03-11T16:18:56;93.05;;;51.88;;
32523;SDS011;18965;52.242;20.886;2023-03-11T16:21:22;93.32;;;49.95;;
32523;SDS011;18965;52.242;20.886;2023-03-11T16:23:53;104.03;;;52.17;;
32523;SDS011;18965;52.242;20.886;2023-03-11T16:26:18;116.55;;;53.20;;
32523;SDS011;18965;52.242;20.886;2023-03-11T16:28:46;93.28;;;51.53;;
32523;SDS011;18965;52.242;20.886;2023-03-11T16:31:12;98.47;;;56.03;;
32523;SDS011;18965;52.242;20.886;2023-03-11T16:33:37;88.93;;;49.33;;
32523;SDS011;18965;52.242;20.886;2023-03-11T16:36:03;84.15;;;61.20;;